Time;durP1;ratioP1;P1;durP2;ratioP2;P2;SDS_P1;SDS_P2;PMS_P1;PMS_P2;Temp;Humidity;BMP_temperature;BMP_pressure;BME280_temperature;BME280_humidity;BME280_pressure;Samples;Min_cycle;Max_cycle;Signal;HPM_P1;HPM_P2
2022/09/05 00:00:06;;;;;;;;;;;;;;;23.94;62.41;100124.19;7314761;19;128964;-37
2022/09/05 00:02:50;;;;;;;;;;;;;;;23.94;61.96;100129.44;7315371;19;129610;-37
2022/09/05 00:05:15;;;;;;;;;;;;;;;23.94;61.70;100118.09;7315767;19;129201;-38
2022/09/05 00:07:40;;;;;;;;;;;;;;;23.88;62.41;100108.16;7313592;19;131602;-37
2022/09/05 00:10:12;;;;;;;;;;;;;;;23.94;62.10;100118.94;7315809;19;130295;-37
2022/09/05 00:12:38;;;;;;;;;;;;;;;23.83;62.52;100100.69;7315157;19;129992;-38
2022/09/05 00:15:22;;;;;;;;;;;;;;;23.94;61.67;100118.09;7316049;19;130403;-38
2022/09/05 00:17:47;;;;;;;;;;;;;;;23.93;62.50;100112.00;7313035;19;129631;-38
2022/09/05 00:20:30;;;;;;;;;;;;;;;23.94;62.08;100118.94;7315202;19;130320;-37
2022/09/05 00:23:09;;;;;;;;;;;;;;;23.95;62.07;100114.50;7315274;19;129047;-37
2022/09/05 00:25:46;;;;;;;;;;;;;;;23.87;62.32;100099.44;7315455;19;129074;-38
2022/09/05 00:28:21;;;;;;;;;;;;;;;23.95;62.12;100112.69;7313290;19;129130;-37
2022/09/05 00:31:02;;;;;;;;;;;;;;;23.94;62.10;100108.44;7314919;19;129284;-37
2022/09/05 00:33:34;;;;;;;;;;;;;;;23.94;61.99;100113.69;7312354;19;129592;-37
2022/09/05 00:36:02;;;;;;;;;;;;;;;23.95;62.08;100117.94;7315158;19;128892;-37
2022/09/05 00:38:28;;;;;;;;;;;;;;;23.93;61.77;100111.19;7311692;19;129996;-38
2022/09/05 00:40:55;;;;;;;;;;;;;;;23.94;62.43;100112.84;7313533;19;129347;-37
2022/09/05 00:43:21;;;;;;;;;;;;;;;23.94;62.04;100113.69;7315448;19;129150;-37
2022/09/05 00:45:48;;;;;;;;;;;;;;;23.94;62.15;100113.69;7314326;19;129127;-37
2022/09/05 00:48:14;;;;;;;;;;;;;;;23.95;62.11;100110.06;7312547;19;129419;-37
2022/09/05 00:50:57;;;;;;;;;;;;;;;23.95;62.08;100110.06;7314754;19;129427;-38
2022/09/05 00:53:43;;;;;;;;;;;;;;;23.95;62.07;100112.69;7311283;19;128885;-37
2022/09/05 00:56:14;;;;;;;;;;;;;;;23.94;61.87;100112.84;7311014;19;129091;-38
2022/09/05 00:58:49;;;;;;;;;;;;;;;23.95;62.50;100109.22;7313399;19;129655;-37
2022/09/05 01:01:20;;;;;;;;;;;;;;;23.94;61.96;100111.06;7313700;19;129529;-38
2022/09/05 01:03:56;;;;;;;;;;;;;;;23.95;62.44;100114.50;7313107;19;128784;-38
2022/09/05 01:06:22;;;;;;;;;;;;;;;23.93;62.44;100114.63;7314002;19;130322;-37
2022/09/05 01:08:48;;;;;;;;;;;;;;;23.96;61.86;100117.00;7313391;19;130181;-38
2022/09/05 01:11:27;;;;;;;;;;;;;;;23.97;62.30;100117.81;7312250;19;130299;-38
2022/09/05 01:14:10;;;;;;;;;;;;;;;23.96;61.86;100110.91;7311871;19;129127;-37
2022/09/05 01:16:54;;;;;;;;;;;;;;;23.95;61.85;100110.06;7310811;19;129149;-37
2022/09/05 01:19:34;;;;;;;;;;;;;;;23.95;61.86;100115.31;7312776;19;129095;-37
2022/09/05 01:22:18;;;;;;;;;;;;;;;23.97;62.09;100118.66;7313007;19;130726;-37
2022/09/05 01:24:56;;;;;;;;;;;;;;;23.96;62.24;100116.16;7313046;19;129205;-37
2022/09/05 01:27:33;;;;;;;;;;;;;;;23.96;61.79;100114.38;7311291;19;130888;-37
2022/09/05 01:30:04;;;;;;;;;;;;;;;23.96;62.09;100113.53;7312630;19;129711;-37
2022/09/05 01:32:47;;;;;;;;;;;;;;;23.95;61.73;100117.94;7312037;19;130646;-37
2022/09/05 01:35:24;;;;;;;;;;;;;;;23.96;62.56;100117.00;7310080;19;128929;-37
2022/09/05 01:38:05;;;;;;;;;;;;;;;23.96;61.93;100111.75;7310684;19;129230;-38
2022/09/05 01:40:30;;;;;;;;;;;;;;;23.95;62.32;100120.56;7312592;19;129626;-37
2022/09/05 01:43:15;;;;;;;;;;;;;;;23.96;62.08;100121.41;7311047;19;129242;-38
2022/09/05 01:45:46;;;;;;;;;;;;;;;23.95;62.31;100120.56;7313150;19;129305;-37
2022/09/05 01:48:11;;;;;;;;;;;;;;;23.97;62.19;100126.53;7311102;19;129938;-38
2022/09/05 01:50:40;;;;;;;;;;;;;;;23.97;62.41;100123.91;7310381;19;130251;-38
2022/09/05 01:53:05;;;;;;;;;;;;;;;23.98;61.76;100122.16;7310922;19;130338;-37
2022/09/05 01:55:49;;;;;;;;;;;;;;;23.97;62.17;100121.28;7311451;19;129012;-37
2022/09/05 01:58:19;;;;;;;;;;;;;;;23.95;62.02;100125.84;7310418;19;128844;-38
2022/09/05 02:00:50;;;;;;;;;;;;;;;23.96;62.13;100122.25;7313201;19;129689;-37
2022/09/05 02:03:34;;;;;;;;;;;;;;;23.96;61.61;100124.88;7311402;19;131062;-37
2022/09/05 02:06:24;;;;;;;;;;;;;;;23.97;62.17;100126.53;7312201;19;129731;-37
2022/09/05 02:08:50;;;;;;;;;;;;;;;23.88;61.91;100108.97;7319488;19;128889;-37
2022/09/05 02:11:15;;;;;;;;;;;;;;;23.97;61.64;100123.91;7319780;19;130179;-37
2022/09/05 02:14:04;;;;;;;;;;;;;;;23.98;62.05;100125.56;7317755;19;129212;-38
2022/09/05 02:16:35;;;;;;;;;;;;;;;23.98;61.92;100127.41;7319140;19;129218;-37
2022/09/05 02:19:13;;;;;;;;;;;;;;;23.96;62.39;100124.88;7319500;19;129385;-37
2022/09/05 02:21:38;;;;;;;;;;;;;;;23.96;61.84;100124.88;7318984;19;130229;-37
2022/09/05 02:24:08;;;;;;;;;;;;;;;23.96;62.38;100131.94;7319076;19;129834;-37
2022/09/05 02:26:49;;;;;;;;;;;;;;;23.95;61.58;100120.56;7320044;19;131708;-37
2022/09/05 02:29:20;;;;;;;;;;;;;;;23.86;62.41;100116.19;7317735;19;129720;-37
2022/09/05 02:31:47;;;;;;;;;;;;;;;23.96;62.10;100126.66;7317525;19;129224;-38
2022/09/05 02:34:19;;;;;;;;;;;;;;;23.96;62.13;100126.66;7316592;19;130230;-38
2022/09/05 02:36:47;;;;;;;;;;;;;;;23.96;62.34;100121.41;7316779;19;129457;-38
2022/09/05 02:39:31;;;;;;;;;;;;;;;23.97;62.33;100128.31;7317166;19;128999;-39
2022/09/05 02:42:00;;;;;;;;;;;;;;;23.97;62.06;100116.03;7317581;19;129550;-38
2022/09/05 02:44:35;;;;;;;;;;;;;;;23.97;62.35;100117.81;7316154;19;131144;-35
2022/09/05 02:47:08;;;;;;;;;;;;;;;23.96;62.42;100119.63;7318524;19;129136;-38
2022/09/05 02:49:59;;;;;;;;;;;;;;;23.96;62.03;100116.16;7317999;19;129703;-38
2022/09/05 02:52:25;;;;;;;;;;;;;;;23.94;61.61;100113.69;7317587;19;129375;-38
2022/09/05 02:54:52;;;;;;;;;;;;;;;23.98;62.06;100119.50;7317817;19;129908;-38
2022/09/05 02:57:36;;;;;;;;;;;;;;;23.96;61.89;100111.75;7316669;19;129081;-38
2022/09/05 03:00:10;;;;;;;;;;;;;;;23.96;62.22;100109.13;7318129;19;128974;-37
2022/09/05 03:02:49;;;;;;;;;;;;;;;23.98;61.99;100117.69;7317183;19;129325;-37
2022/09/05 03:05:28;;;;;;;;;;;;;;;23.98;62.17;100115.06;7317713;19;130187;-37
2022/09/05 03:07:59;;;;;;;;;;;;;;;23.97;61.77;100118.66;7315051;19;129244;-38
2022/09/05 03:10:38;;;;;;;;;;;;;;;23.97;62.40;100109.94;7318043;19;129099;-37
2022/09/05 03:13:22;;;;;;;;;;;;;;;23.90;62.24;100106.25;7316421;19;130277;-38
2022/09/05 03:15:54;;;;;;;;;;;;;;;23.98;62.13;100117.69;7316984;19;129208;-37
2022/09/05 03:18:22;;;;;;;;;;;;;;;23.96;61.68;100111.75;7313821;19;129287;-37
2022/09/05 03:21:17;;;;;;;;;;;;;;;23.98;61.73;100115.06;7317159;19;129456;-37
2022/09/05 03:23:57;;;;;;;;;;;;;;;23.97;62.15;100107.31;7316747;19;130124;-37
2022/09/05 03:26:28;;;;;;;;;;;;;;;23.97;62.39;100108.13;7316728;19;129598;-37
2022/09/05 03:29:12;;;;;;;;;;;;;;;23.97;61.90;100110.75;7317691;19;129154;-38
2022/09/05 03:31:49;;;;;;;;;;;;;;;23.96;61.68;100103.88;7315850;19;130298;-37
2022/09/05 03:34:21;;;;;;;;;;;;;;;23.96;62.06;100111.75;7316214;19;130281;-37
2022/09/05 03:36:52;;;;;;;;;;;;;;;23.95;61.98;100112.69;7314415;19;129469;-38
2022/09/05 03:39:36;;;;;;;;;;;;;;;23.98;62.45;100109.81;7315886;19;128960;-37
2022/09/05 03:42:10;;;;;;;;;;;;;;;23.97;62.35;100112.56;7315502;19;130559;-38
2022/09/05 03:44:35;;;;;;;;;;;;;;;23.97;62.42;100112.56;7316606;19;129565;-38
2022/09/05 03:47:09;;;;;;;;;;;;;;;23.98;61.78;100120.31;7312737;19;129567;-38
2022/09/05 03:49:41;;;;;;;;;;;;;;;23.95;61.94;100120.56;7316243;19;130120;-38
2022/09/05 03:52:06;;;;;;;;;;;;;;;23.98;61.73;100122.94;7314746;19;130125;-38
2022/09/05 03:54:56;;;;;;;;;;;;;;;23.98;61.49;100122.94;7312213;19;130267;-38
2022/09/05 03:57:44;;;;;;;;;;;;;;;23.98;61.96;100120.31;7314523;19;130443;-38
2022/09/05 04:00:21;;;;;;;;;;;;;;;23.91;62.45;100103.47;7313702;19;129769;-38
2022/09/05 04:02:47;;;;;;;;;;;;;;;23.88;61.63;100103.72;7313310;19;129149;-38
2022/09/05 04:05:18;;;;;;;;;;;;;;;23.98;61.95;100124.78;7313982;19;130316;-38
2022/09/05 04:07:43;;;;;;;;;;;;;;;23.97;62.24;100123.91;7313901;19;129309;-38
2022/09/05 04:10:08;;;;;;;;;;;;;;;23.89;61.64;100107.19;7310584;19;129515;-38
2022/09/05 04:12:48;;;;;;;;;;;;;;;23.97;62.23;100123.91;7314978;19;128950;-38
2022/09/05 04:15:13;;;;;;;;;;;;;;;23.98;61.96;100127.41;7315045;19;129087;-38
2022/09/05 04:17:38;;;;;;;;;;;;;;;23.97;61.74;100123.91;7313799;19;129739;-38
2022/09/05 04:20:10;;;;;;;;;;;;;;;23.87;62.00;100112.59;7315120;19;128837;-38
2022/09/05 04:22:54;;;;;;;;;;;;;;;23.99;62.11;100127.25;7315704;19;129286;-38
2022/09/05 04:25:30;;;;;;;;;;;;;;;23.98;62.24;100125.56;7314282;19;130838;-38
2022/09/05 04:28:01;;;;;;;;;;;;;;;23.98;62.00;100122.94;7313164;19;129186;-38
2022/09/05 04:30:33;;;;;;;;;;;;;;;23.98;61.65;100125.56;7309902;19;129075;-38
2022/09/05 04:33:03;;;;;;;;;;;;;;;23.99;61.73;100121.16;7308796;19;129507;-37
2022/09/05 04:35:34;;;;;;;;;;;;;;;23.99;61.95;100121.16;7314130;19;130370;-38
2022/09/05 04:38:11;;;;;;;;;;;;;;;24.02;61.84;100126.97;7312347;19;129289;-38
2022/09/05 04:40:39;;;;;;;;;;;;;;;23.90;61.67;100114.91;7312758;19;130546;-39
2022/09/05 04:43:09;;;;;;;;;;;;;;;23.98;61.49;100130.81;7315115;19;129473;-38
2022/09/05 04:45:37;;;;;;;;;;;;;;;23.99;61.29;100131.66;7311137;19;130262;-38
2022/09/05 04:48:04;;;;;;;;;;;;;;;23.98;61.85;100135.28;7312587;19;129593;-38
2022/09/05 04:50:32;;;;;;;;;;;;;;;24.00;61.48;100133.31;7313673;19;129979;-38
2022/09/05 04:52:57;;;;;;;;;;;;;;;23.91;61.31;100127.09;7312868;19;130575;-38
2022/09/05 04:55:24;;;;;;;;;;;;;;;23.99;61.87;100139.53;7314899;19;130228;-38
2022/09/05 04:58:01;;;;;;;;;;;;;;;23.99;61.81;100136.91;7311262;19;130169;-38
2022/09/05 05:00:50;;;;;;;;;;;;;;;24.02;61.47;100137.47;7313067;19;129768;-38
2022/09/05 05:03:17;;;;;;;;;;;;;;;23.97;61.30;100134.41;7311266;19;129093;-38
2022/09/05 05:05:51;;;;;;;;;;;;;;;23.98;62.14;100133.47;7313847;19;129299;-38
2022/09/05 05:08:20;;;;;;;;;;;;;;;23.99;61.66;100140.38;7311729;19;130948;-37
2022/09/05 05:10:50;;;;;;;;;;;;;;;24.00;61.43;100136.78;7313936;19;129023;-38
2022/09/05 05:13:54;;;;;;;;;;;;;;;24.01;61.95;100140.25;7310860;19;128966;-38
2022/09/05 05:16:27;;;;;;;;;;;;;;;23.99;61.82;100150.88;7308571;19;129123;-38
2022/09/05 05:19:05;;;;;;;;;;;;;;;23.98;62.11;100143.97;7310959;19;129931;-38
2022/09/05 05:21:31;;;;;;;;;;;;;;;23.98;61.46;100141.34;7310723;19;129336;-36
2022/09/05 05:24:08;;;;;;;;;;;;;;;23.99;61.72;100148.25;7314968;19;129432;-38
2022/09/05 05:26:42;;;;;;;;;;;;;;;23.89;61.51;100131.66;7312007;19;129060;-38
2022/09/05 05:29:07;;;;;;;;;;;;;;;23.97;61.11;100144.91;7311947;19;130771;-38
2022/09/05 05:31:34;;;;;;;;;;;;;;;23.97;61.89;100144.91;7311453;19;128965;-38
2022/09/05 05:34:12;;;;;;;;;;;;;;;23.99;61.64;100157.94;7312326;19;128905;-38
2022/09/05 05:36:39;;;;;;;;;;;;;;;23.89;61.54;100149.22;7309512;19;129287;-38
2022/09/05 05:39:07;;;;;;;;;;;;;;;23.98;61.87;100161.53;7301477;19;129287;-38
2022/09/05 05:41:35;;;;;;;;;;;;;;;23.99;62.06;100153.50;7312018;19;129156;-38
2022/09/05 05:44:09;;;;;;;;;;;;;;;23.99;62.03;100157.94;7318550;19;130796;-37
2022/09/05 05:46:36;;;;;;;;;;;;;;;23.99;61.78;100158.78;7310452;19;130541;-38
2022/09/05 05:49:06;;;;;;;;;;;;;;;24.00;61.71;100165.66;7316163;19;129868;-38
2022/09/05 05:51:32;;;;;;;;;;;;;;;23.99;61.76;100161.41;7314650;19;129223;-38
2022/09/05 05:54:13;;;;;;;;;;;;;;;24.00;62.13;100164.81;7313275;19;129633;-38
2022/09/05 05:56:38;;;;;;;;;;;;;;;24.00;61.73;100160.41;7317850;19;129177;-38
2022/09/05 05:59:04;;;;;;;;;;;;;;;24.00;61.86;100160.41;7316879;19;130148;-38
2022/09/05 06:01:35;;;;;;;;;;;;;;;24.00;61.49;100156.94;7317086;19;128975;-40
2022/09/05 06:04:13;;;;;;;;;;;;;;;23.95;61.46;100157.34;7310381;19;129720;-38
2022/09/05 06:06:47;;;;;;;;;;;;;;;23.97;61.81;100162.47;7314095;19;129542;-37
2022/09/05 06:09:25;;;;;;;;;;;;;;;23.97;61.84;100150.16;7314615;19;130277;-37
2022/09/05 06:12:16;;;;;;;;;;;;;;;24.00;61.49;100159.56;7311475;19;129068;-38
2022/09/05 06:15:02;;;;;;;;;;;;;;;24.00;62.05;100155.16;7310773;19;128874;-38
2022/09/05 06:17:27;;;;;;;;;;;;;;;23.99;61.84;100164.03;7315160;19;131429;-38
2022/09/05 06:19:56;;;;;;;;;;;;;;;23.89;61.65;100150.03;7316212;19;130064;-38
2022/09/05 06:22:21;;;;;;;;;;;;;;;23.99;61.46;100165.81;7315763;19;130052;-38
2022/09/05 06:24:54;;;;;;;;;;;;;;;23.96;61.64;100159.03;7313203;19;129093;-39
2022/09/05 06:27:37;;;;;;;;;;;;;;;23.98;61.70;100167.59;7313547;19;130484;-38
2022/09/05 06:30:03;;;;;;;;;;;;;;;23.91;61.82;100150.75;7311921;19;131873;-39
2022/09/05 06:32:47;;;;;;;;;;;;;;;23.99;61.48;100164.03;7314957;19;129918;-38
2022/09/05 06:35:30;;;;;;;;;;;;;;;24.00;61.73;100165.66;7311516;19;128978;-38
2022/09/05 06:37:55;;;;;;;;;;;;;;;23.99;61.46;100161.41;7310776;19;129981;-38
2022/09/05 06:40:27;;;;;;;;;;;;;;;24.01;61.70;100164.72;7315531;19;129813;-38
2022/09/05 06:43:11;;;;;;;;;;;;;;;24.01;61.61;100166.50;7317783;19;130209;-37
2022/09/05 06:45:42;;;;;;;;;;;;;;;24.01;61.75;100162.09;7316350;19;129141;-38
2022/09/05 06:48:26;;;;;;;;;;;;;;;24.00;62.17;100170.91;7313939;19;129332;-38
2022/09/05 06:51:11;;;;;;;;;;;;;;;24.00;61.78;100173.53;7314302;19;129511;-38
2022/09/05 06:53:36;;;;;;;;;;;;;;;24.01;61.91;100167.34;7313038;19;128837;-38
2022/09/05 06:56:01;;;;;;;;;;;;;;;23.93;61.78;100154.03;7316703;19;129661;-38
2022/09/05 06:58:45;;;;;;;;;;;;;;;24.02;61.42;100169.00;7312962;19;130821;-38
2022/09/05 07:01:12;;;;;;;;;;;;;;;23.99;62.04;100179.78;7316210;19;129416;-38
2022/09/05 07:03:56;;;;;;;;;;;;;;;23.96;62.30;100169.53;7315488;19;129496;-37
2022/09/05 07:06:33;;;;;;;;;;;;;;;23.96;61.67;100169.53;7316665;19;129809;-38
2022/09/05 07:09:04;;;;;;;;;;;;;;;23.90;61.93;100158.75;7315609;19;129451;-38
2022/09/05 07:11:30;;;;;;;;;;;;;;;24.00;61.54;100181.44;7317229;19;130327;-38
2022/09/05 07:14:07;;;;;;;;;;;;;;;23.99;61.97;100178.94;7313166;19;128915;-38
2022/09/05 07:16:36;;;;;;;;;;;;;;;24.00;61.90;100180.59;7313270;19;129240;-37
2022/09/05 07:19:09;;;;;;;;;;;;;;;23.97;62.25;100186.94;7310718;19;130128;-38
2022/09/05 07:21:41;;;;;;;;;;;;;;;23.98;62.88;100182.56;7313746;19;129248;-38
2022/09/05 07:24:11;;;;;;;;;;;;;;;23.96;61.69;100182.66;7314668;19;129485;-38
2022/09/05 07:26:40;;;;;;;;;;;;;;;24.00;61.83;100180.59;7313227;19;129065;-37
2022/09/05 07:29:06;;;;;;;;;;;;;;;23.99;61.53;100179.78;7314215;19;130132;-38
2022/09/05 07:31:33;;;;;;;;;;;;;;;24.01;62.05;100183.09;7315367;19;129241;-38
2022/09/05 07:34:18;;;;;;;;;;;;;;;23.93;61.96;100182.91;7316058;19;129767;-38
2022/09/05 07:36:46;;;;;;;;;;;;;;;23.94;62.32;100175.88;7312870;19;129278;-38
2022/09/05 07:39:15;;;;;;;;;;;;;;;23.88;62.48;100181.69;7313778;19;132276;-38
2022/09/05 07:41:43;;;;;;;;;;;;;;;23.82;62.39;100188.34;7313853;19;131138;-38
2022/09/05 07:44:12;;;;;;;;;;;;;;;23.88;62.76;100181.69;7314080;19;129101;-38
2022/09/05 07:46:38;;;;;;;;;;;;;;;23.93;62.75;100182.13;7314258;19;128862;-38
2022/09/05 07:49:06;;;;;;;;;;;;;;;23.93;62.14;100188.16;7313978;19;129471;-38
2022/09/05 07:51:36;;;;;;;;;;;;;;;23.83;62.53;100187.34;7313798;19;130781;-37
2022/09/05 07:54:09;;;;;;;;;;;;;;;23.87;62.52;100186.13;7313422;19;129970;-38
2022/09/05 07:56:37;;;;;;;;;;;;;;;23.95;62.77;100183.63;7313946;19;129107;-38
2022/09/05 07:59:07;;;;;;;;;;;;;;;23.97;62.49;100179.06;7312585;19;129534;-37
2022/09/05 08:01:33;;;;;;;;;;;;;;;23.97;62.68;100171.19;7310431;19;129883;-37
2022/09/05 08:03:58;;;;;;;;;;;;;;;23.98;62.17;100164.16;7313025;19;129146;-38
2022/09/05 08:06:24;;;;;;;;;;;;;;;23.99;62.42;100169.28;7313579;19;129556;-39
2022/09/05 08:08:50;;;;;;;;;;;;;;;24.01;62.42;100167.34;7312949;19;129606;-38
2022/09/05 08:11:17;;;;;;;;;;;;;;;23.99;62.37;100169.28;7313755;19;130352;-38
2022/09/05 08:13:42;;;;;;;;;;;;;;;24.01;61.85;100171.75;7311458;19;129302;-38
2022/09/05 08:16:12;;;;;;;;;;;;;;;23.99;62.17;100171.91;7312915;19;130417;-38
2022/09/05 08:18:44;;;;;;;;;;;;;;;24.00;62.37;100176.19;7311389;19;129508;-38
2022/09/05 08:21:12;;;;;;;;;;;;;;;23.88;62.70;100156.25;7310932;19;131040;-36
2022/09/05 08:23:46;;;;;;;;;;;;;;;23.99;61.65;100166.66;7312216;19;129285;-38
2022/09/05 08:26:24;;;;;;;;;;;;;;;23.98;62.25;100167.59;7313029;19;128966;-37
2022/09/05 08:29:09;;;;;;;;;;;;;;;24.02;62.06;100170.78;7309987;19;130112;-38
2022/09/05 08:31:50;;;;;;;;;;;;;;;23.99;62.36;100166.66;7312936;19;130960;-38
2022/09/05 08:34:23;;;;;;;;;;;;;;;23.97;61.58;100165.91;7309289;19;129403;-38
2022/09/05 08:36:50;;;;;;;;;;;;;;;24.00;62.16;100172.72;7310768;19;129701;-38
2022/09/05 08:39:18;;;;;;;;;;;;;;;23.85;62.68;100153.09;7309893;19;129082;-38
2022/09/05 08:41:46;;;;;;;;;;;;;;;23.93;62.46;100167.16;7312797;19;129266;-38
2022/09/05 08:44:14;;;;;;;;;;;;;;;23.94;62.88;100166.22;7310154;19;130793;-38
2022/09/05 08:46:39;;;;;;;;;;;;;;;23.96;62.71;100163.44;7310199;19;129119;-38
2022/09/05 08:49:20;;;;;;;;;;;;;;;23.95;62.13;100164.38;7312617;19;129163;-38
2022/09/05 08:51:51;;;;;;;;;;;;;;;23.95;62.21;100159.13;7307056;19;130725;-38
2022/09/05 08:54:24;;;;;;;;;;;;;;;23.96;62.74;100156.41;7312423;19;129086;-38
2022/09/05 08:56:52;;;;;;;;;;;;;;;23.99;62.73;100152.69;7314109;19;129634;-38
2022/09/05 08:59:26;;;;;;;;;;;;;;;24.01;62.63;100156.00;7312306;19;129512;-38
2022/09/05 09:01:54;;;;;;;;;;;;;;;24.00;62.29;100144.66;7313352;19;129886;-38
2022/09/05 09:04:22;;;;;;;;;;;;;;;23.98;62.40;100151.84;7314139;19;129481;-37
2022/09/05 09:07:06;;;;;;;;;;;;;;;24.00;62.42;100144.66;7308074;19;130274;-38
2022/09/05 09:09:37;;;;;;;;;;;;;;;23.98;62.33;100146.59;7310501;19;129273;-39
2022/09/05 09:12:08;;;;;;;;;;;;;;;23.96;62.39;100140.63;7306596;19;129383;-38
2022/09/05 09:14:34;;;;;;;;;;;;;;;23.98;62.13;100137.91;7309607;19;129058;-38
2022/09/05 09:17:06;;;;;;;;;;;;;;;23.98;62.36;100149.22;7307085;19;128861;-38
2022/09/05 09:19:45;;;;;;;;;;;;;;;24.00;62.72;100144.66;7307662;19;129225;-39
2022/09/05 09:22:46;;;;;;;;;;;;;;;24.01;62.00;100146.34;7309643;19;129644;-38
2022/09/05 09:25:11;;;;;;;;;;;;;;;24.01;62.78;100146.34;7307452;19;129629;-38
2022/09/05 09:27:46;;;;;;;;;;;;;;;24.00;62.14;100147.28;7308130;19;129223;-38
2022/09/05 09:30:12;;;;;;;;;;;;;;;24.02;62.70;100142.72;7307845;19;130808;-38
2022/09/05 09:32:45;;;;;;;;;;;;;;;24.01;61.95;100150.75;7308022;19;131561;-38
2022/09/05 09:35:22;;;;;;;;;;;;;;;24.00;62.21;100149.91;7304416;19;129523;-38
2022/09/05 09:37:49;;;;;;;;;;;;;;;23.96;62.17;100140.63;7309693;19;129062;-38
2022/09/05 09:40:21;;;;;;;;;;;;;;;23.94;62.99;100144.34;7308265;19;130070;-38
2022/09/05 09:43:13;;;;;;;;;;;;;;;23.91;63.10;100149.91;7309350;19;130330;-38
2022/09/05 09:45:57;;;;;;;;;;;;;;;23.97;62.21;100139.66;7307625;19;129349;-38
2022/09/05 09:48:38;;;;;;;;;;;;;;;23.65;63.56;100141.78;7302365;19;129383;-38
2022/09/05 09:51:09;;;;;;;;;;;;;;;23.71;63.39;100135.97;7311880;19;129831;-38
2022/09/05 09:53:53;;;;;;;;;;;;;;;23.62;63.94;100147.31;7309789;19;129484;-38
2022/09/05 09:56:18;;;;;;;;;;;;;;;23.70;63.57;100146.63;7312662;19;129153;-36
2022/09/05 09:59:02;;;;;;;;;;;;;;;23.76;63.92;100135.53;7309138;19;129162;-38
2022/09/05 10:01:27;;;;;;;;;;;;;;;23.72;63.80;100144.66;7308591;19;129709;-36
2022/09/05 10:04:00;;;;;;;;;;;;;;;23.79;63.18;100141.34;7311217;19;129672;-37
2022/09/05 10:06:45;;;;;;;;;;;;;;;23.81;63.24;100131.53;7310705;19;129051;-38
2022/09/05 10:09:13;;;;;;;;;;;;;;;23.87;62.92;100128.34;7308920;19;129253;-38
2022/09/05 10:11:49;;;;;;;;;;;;;;;23.92;62.51;100128.75;7310136;19;129087;-38
2022/09/05 10:14:14;;;;;;;;;;;;;;;23.90;62.94;100130.69;7307469;19;129865;-38
2022/09/05 10:17:04;;;;;;;;;;;;;;;23.94;62.40;100129.44;7310965;19;129371;-37
2022/09/05 10:19:29;;;;;;;;;;;;;;;23.95;63.08;100125.84;7298899;19;129462;-37
2022/09/05 10:21:58;;;;;;;;;;;;;;;23.80;62.94;100126.44;7310685;19;130303;-37
2022/09/05 10:24:35;;;;;;;;;;;;;;;23.79;63.64;100124.75;7308086;19;130739;-38
2022/09/05 10:27:07;;;;;;;;;;;;;;;23.87;63.01;100117.84;7304685;19;129177;-37
2022/09/05 10:29:33;;;;;;;;;;;;;;;23.94;62.77;100121.56;7313822;19;129754;-37
2022/09/05 10:32:04;;;;;;;;;;;;;;;23.94;62.70;100124.19;7316549;19;129198;-37
2022/09/05 10:34:39;;;;;;;;;;;;;;;23.96;62.27;100122.25;7317391;19;129732;-38
2022/09/05 10:37:08;;;;;;;;;;;;;;;23.97;63.12;100116.03;7316809;19;128955;-38
2022/09/05 10:39:37;;;;;;;;;;;;;;;23.99;62.82;100115.91;7317086;19;129876;-37
2022/09/05 10:42:25;;;;;;;;;;;;;;;23.80;61.26;100116.75;7317373;19;129923;-38
2022/09/05 10:44:54;;;;;;;;;;;;;;;23.71;63.33;100106.25;7313004;19;129611;-37
2022/09/05 10:47:23;;;;;;;;;;;;;;;23.75;63.61;100105.03;7317631;19;129687;-37
2022/09/05 10:49:50;;;;;;;;;;;;;;;23.79;63.54;100104.59;7316135;19;129245;-37
2022/09/05 10:52:32;;;;;;;;;;;;;;;23.78;63.65;100102.94;7316559;19;129216;-38
2022/09/05 10:55:17;;;;;;;;;;;;;;;23.84;63.09;100102.38;7317187;19;129767;-36
2022/09/05 10:57:45;;;;;;;;;;;;;;;23.84;63.23;100081.38;7317301;19;129535;-38
2022/09/05 11:00:32;;;;;;;;;;;;;;;23.94;63.81;100107.59;7318765;19;129043;-38
2022/09/05 11:03:00;;;;;;;;;;;;;;;23.81;63.33;100086.06;7316889;19;129942;-38
2022/09/05 11:05:26;;;;;;;;;;;;;;;23.88;62.91;100087.16;7316757;19;129354;-37
2022/09/05 11:08:01;;;;;;;;;;;;;;;23.81;63.31;100084.28;7315510;19;128862;-38
2022/09/05 11:10:32;;;;;;;;;;;;;;;23.81;63.14;100084.28;7318306;19;130215;-38
2022/09/05 11:13:07;;;;;;;;;;;;;;;23.90;63.12;100080.78;7315519;19;129356;-38
2022/09/05 11:15:38;;;;;;;;;;;;;;;23.93;63.10;100083.13;7314110;19;129327;-38
2022/09/05 11:18:22;;;;;;;;;;;;;;;23.94;63.06;100076.91;7315401;19;129576;-38
2022/09/05 11:20:47;;;;;;;;;;;;;;;23.96;62.51;100077.59;7318123;19;129099;-37
2022/09/05 11:23:31;;;;;;;;;;;;;;;23.97;63.30;100076.63;7316788;19;129458;-38
2022/09/05 11:26:00;;;;;;;;;;;;;;;24.00;63.23;100072.91;7316676;19;130422;-38
2022/09/05 11:28:32;;;;;;;;;;;;;;;24.01;62.68;100072.78;7312880;19;131217;-38
2022/09/05 11:30:59;;;;;;;;;;;;;;;24.01;62.79;100070.16;7316389;19;129200;-38
2022/09/05 11:33:30;;;;;;;;;;;;;;;24.01;63.13;100072.78;7315427;19;129571;-38
2022/09/05 11:36:00;;;;;;;;;;;;;;;24.01;62.61;100072.78;7312939;19;128982;-36
2022/09/05 11:38:36;;;;;;;;;;;;;;;23.98;63.29;100078.28;7312109;19;129176;-36
2022/09/05 11:41:10;;;;;;;;;;;;;;;23.99;63.10;100072.09;7314389;19;129576;-37
2022/09/05 11:43:41;;;;;;;;;;;;;;;24.00;62.94;100071.09;7314539;19;130257;-38
2022/09/05 11:46:15;;;;;;;;;;;;;;;24.03;63.01;100075.25;7316114;19;130593;-38
2022/09/05 11:48:59;;;;;;;;;;;;;;;23.93;63.16;100072.63;7312097;19;129731;-37
2022/09/05 11:51:38;;;;;;;;;;;;;;;23.88;62.83;100061.72;7315672;19;130063;-38
2022/09/05 11:54:04;;;;;;;;;;;;;;;23.88;62.79;100077.47;7314736;19;129131;-36
2022/09/05 11:56:47;;;;;;;;;;;;;;;23.92;63.53;100072.75;7314588;19;129200;-38
2022/09/05 11:59:15;;;;;;;;;;;;;;;23.98;62.50;100059.91;7313302;19;129869;-38
2022/09/05 12:01:43;;;;;;;;;;;;;;;23.97;62.50;100067.91;7315918;19;129954;-38
2022/09/05 12:04:34;;;;;;;;;;;;;;;24.00;62.95;100065.84;7315864;19;129184;-38
2022/09/05 12:06:59;;;;;;;;;;;;;;;23.90;62.87;100062.41;7311023;19;129703;-38
2022/09/05 12:09:43;;;;;;;;;;;;;;;23.93;63.55;100070.00;7313530;19;130422;-38
2022/09/05 12:12:11;;;;;;;;;;;;;;;23.89;63.54;100068.63;7311351;19;129620;-38
2022/09/05 12:14:40;;;;;;;;;;;;;;;23.94;63.16;100065.56;7314321;19;130809;-37
2022/09/05 12:17:24;;;;;;;;;;;;;;;23.83;63.63;100042.94;7312329;19;130277;-38
2022/09/05 12:19:55;;;;;;;;;;;;;;;23.71;63.73;100044.09;7314772;19;129209;-38
2022/09/05 12:22:35;;;;;;;;;;;;;;;23.82;63.54;100061.44;7313792;19;129534;-38
2022/09/05 12:25:00;;;;;;;;;;;;;;;23.65;63.61;100044.63;7313568;19;129102;-39
2022/09/05 12:27:28;;;;;;;;;;;;;;;23.72;63.58;100035.22;7304723;19;130333;-36
2022/09/05 12:29:56;;;;;;;;;;;;;;;23.81;62.98;100039.63;7313885;19;129679;-37
2022/09/05 12:32:24;;;;;;;;;;;;;;;23.91;62.78;100042.22;7309521;19;129647;-37
2022/09/05 12:34:54;;;;;;;;;;;;;;;23.99;63.33;100047.63;7312921;19;129360;-38
2022/09/05 12:37:43;;;;;;;;;;;;;;;23.93;63.07;100054.22;7310967;19;130962;-38
2022/09/05 12:40:10;;;;;;;;;;;;;;;23.95;63.02;100051.44;7311389;19;129430;-38
2022/09/05 12:42:39;;;;;;;;;;;;;;;23.98;63.01;100051.22;7310693;19;129382;-38
2022/09/05 12:45:10;;;;;;;;;;;;;;;23.88;62.92;100030.19;7311361;19;130061;-38
2022/09/05 12:47:59;;;;;;;;;;;;;;;24.02;62.74;100050.78;7312143;19;131042;-38
2022/09/05 12:50:37;;;;;;;;;;;;;;;23.94;62.74;100034.06;7306829;19;130697;-38
2022/09/05 12:53:06;;;;;;;;;;;;;;;23.96;63.79;100040.84;7308834;19;130255;-38
2022/09/05 12:55:35;;;;;;;;;;;;;;;23.96;62.65;100029.50;7311927;19;130232;-38
2022/09/05 12:58:01;;;;;;;;;;;;;;;23.99;63.00;100035.31;7305760;19;130442;-38